sensor_id;sensor_type;location;lat;lon;timestamp;pressure;altitude;pressure_sealevel;temperature;humidity
57799;BME280;43626;53.866;30.298;2023-12-04T00:02:00;1022.1;;;-6.5;60.1
57799;BME280;43626;53.866;30.298;2023-12-04T00:06:22;1022.2;;;-6.5;60.3
57799;BME280;43626;53.866;30.298;2023-12-04T00:11:36;1022.3;;;-6.4;60
57799;BME280;43626;53.866;30.298;2023-12-04T00:16:20;1022.4;;;-6.4;60.1
57799;BME280;43626;53.866;30.298;2023-12-04T00:21:20;1022.4;;;-6.4;60
57799;BME280;43626;53.866;30.298;2023-12-04T00:26:34;1022.5;;;-6.3;60.1
57799;BME280;43626;53.866;30.298;2023-12-04T00:31:48;1022.5;;;-6.3;59.9
57799;BME280;43626;53.866;30.298;2023-12-04T00:36:58;1022.6;;;-6.3;59.9
57799;BME280;43626;53.866;30.298;2023-12-04T00:41:20;1022.6;;;-6.3;59.6
57799;BME280;43626;53.866;30.298;2023-12-04T00:46:56;1022.7;;;-6.2;59.6
57799;BME280;43626;53.866;30.298;2023-12-04T00:51:24;1022.7;;;-6.1;59.8
57799;BME280;43626;53.866;30.298;2023-12-04T00:56:42;1022.7;;;-6;59.8
57799;BME280;43626;53.866;30.298;2023-12-04T01:01:38;1022.7;;;-5.9;59.6
57799;BME280;43626;53.866;30.298;2023-12-04T01:06:30;1022.7;;;-5.8;59.8
57799;BME280;43626;53.866;30.298;2023-12-04T01:12:00;1022.8;;;-5.8;59.7
57799;BME280;43626;53.866;30.298;2023-12-04T01:16:42;1022.8;;;-5.7;59.8
57799;BME280;43626;53.866;30.298;2023-12-04T01:22:00;1022.9;;;-5.7;59.6
57799;BME280;43626;53.866;30.298;2023-12-04T01:27:00;1022.9;;;-5.7;59.4
57799;BME280;43626;53.866;30.298;2023-12-04T01:31:24;1023;;;-5.7;59
57799;BME280;43626;53.866;30.298;2023-12-04T01:36:28;1023;;;-5.7;59
57799;BME280;43626;53.866;30.298;2023-12-04T01:42:02;1023;;;-5.7;58.8
57799;BME280;43626;53.866;30.298;2023-12-04T01:46:20;1023;;;-5.8;58.8
57799;BME280;43626;53.866;30.298;2023-12-04T01:51:28;1023;;;-5.8;58.9
57799;BME280;43626;53.866;30.298;2023-12-04T01:56:20;1023.1;;;-5.8;59.1
57799;BME280;43626;53.866;30.298;2023-12-04T02:01:20;1023.1;;;-5.9;59
57799;BME280;43626;53.866;30.298;2023-12-04T02:06:28;1023.1;;;-5.9;59
57799;BME280;43626;53.866;30.298;2023-12-04T02:11:50;1023.1;;;-5.9;59.1
57799;BME280;43626;53.866;30.298;2023-12-04T02:17:02;1023.2;;;-6;58.9
57799;BME280;43626;53.866;30.298;2023-12-04T02:21:36;1023.2;;;-6;58.3
57799;BME280;43626;53.866;30.298;2023-12-04T02:26:22;1023.2;;;-6.2;57.7
57799;BME280;43626;53.866;30.298;2023-12-04T02:31:22;1023.2;;;-6.3;57.5
57799;BME280;43626;53.866;30.298;2023-12-04T02:36:42;1023.2;;;-6.4;57.4
57799;BME280;43626;53.866;30.298;2023-12-04T02:41:24;1023.2;;;-6.5;57.3
57799;BME280;43626;53.866;30.298;2023-12-04T02:46:20;1023.3;;;-6.6;57
57799;BME280;43626;53.866;30.298;2023-12-04T02:51:40;1023.3;;;-6.8;56.9
57799;BME280;43626;53.866;30.298;2023-12-04T02:56:48;1023.4;;;-6.9;57.1
57799;BME280;43626;53.866;30.298;2023-12-04T03:01:58;1023.5;;;-7.1;56.8
57799;BME280;43626;53.866;30.298;2023-12-04T03:06:56;1023.5;;;-7.3;56.5
57799;BME280;43626;53.866;30.298;2023-12-04T03:11:20;1023.6;;;-7.5;57
57799;BME280;43626;53.866;30.298;2023-12-04T03:17:02;1023.7;;;-7.6;57.2
57799;BME280;43626;53.866;30.298;2023-12-04T03:21:30;1023.7;;;-7.7;56.3
57799;BME280;43626;53.866;30.298;2023-12-04T03:26:58;1023.7;;;-7.9;55.7
57799;BME280;43626;53.866;30.298;2023-12-04T03:31:20;1023.8;;;-8;55.2
57799;BME280;43626;53.866;30.298;2023-12-04T03:36:20;1023.8;;;-8.1;55
57799;BME280;43626;53.866;30.298;2023-12-04T03:41:28;1023.9;;;-8.3;55.1
57799;BME280;43626;53.866;30.298;2023-12-04T03:46:22;1023.9;;;-8.5;55.3
57799;BME280;43626;53.866;30.298;2023-12-04T03:51:20;1023.9;;;-8.6;55.4
57799;BME280;43626;53.866;30.298;2023-12-04T03:56:46;1024;;;-8.7;55.2
57799;BME280;43626;53.866;30.298;2023-12-04T04:01:50;1024.1;;;-8.8;54.9
57799;BME280;43626;53.866;30.298;2023-12-04T04:07:02;1024.1;;;-9;54.9
57799;BME280;43626;53.866;30.298;2023-12-04T04:12:02;1024.2;;;-9.2;54.6
57799;BME280;43626;53.866;30.298;2023-12-04T04:16:50;1024.2;;;-9.3;55.3
57799;BME280;43626;53.866;30.298;2023-12-04T04:22:02;1024.2;;;-9.4;55.4
57799;BME280;43626;53.866;30.298;2023-12-04T04:26:28;1024.2;;;-9.4;55.7
57799;BME280;43626;53.866;30.298;2023-12-04T04:31:42;1024.2;;;-9.3;55.8
57799;BME280;43626;53.866;30.298;2023-12-04T04:36:50;1024.2;;;-9.3;55.2
57799;BME280;43626;53.866;30.298;2023-12-04T04:42:00;1024.2;;;-9.3;55
57799;BME280;43626;53.866;30.298;2023-12-04T04:46:40;1024.2;;;-9.4;54.9
57799;BME280;43626;53.866;30.298;2023-12-04T04:51:27;1024.2;;;-9.5;54.6
57799;BME280;43626;53.866;30.298;2023-12-04T04:57:02;1024.2;;;-9.5;54.5
57799;BME280;43626;53.866;30.298;2023-12-04T05:01:40;1024.2;;;-9.6;54.4
57799;BME280;43626;53.866;30.298;2023-12-04T05:06:46;1024.2;;;-9.7;54.3
57799;BME280;43626;53.866;30.298;2023-12-04T05:11:20;1024.2;;;-9.8;53.8
57799;BME280;43626;53.866;30.298;2023-12-04T05:17:00;1024.1;;;-9.9;53.4
57799;BME280;43626;53.866;30.298;2023-12-04T05:21:26;1024.2;;;-9.9;53.8
57799;BME280;43626;53.866;30.298;2023-12-04T05:26:22;1024.3;;;-10;52.9
57799;BME280;43626;53.866;30.298;2023-12-04T05:31:20;1024.3;;;-10;53
57799;BME280;43626;53.866;30.298;2023-12-04T05:37:00;1024.3;;;-10;53.5
57799;BME280;43626;53.866;30.298;2023-12-04T05:41:32;1024.3;;;-10;53.7
57799;BME280;43626;53.866;30.298;2023-12-04T05:47:00;1024.4;;;-9.9;53.9
57799;BME280;43626;53.866;30.298;2023-12-04T05:52:00;1024.4;;;-9.9;53.9
57799;BME280;43626;53.866;30.298;2023-12-04T05:56:44;1024.4;;;-9.9;54
57799;BME280;43626;53.866;30.298;2023-12-04T06:02:02;1024.4;;;-9.9;53.9
57799;BME280;43626;53.866;30.298;2023-12-04T06:06:42;1024.4;;;-9.9;53.8
57799;BME280;43626;53.866;30.298;2023-12-04T06:11:30;1024.3;;;-9.8;54
57799;BME280;43626;53.866;30.298;2023-12-04T06:16:50;1024.3;;;-9.7;54.1
57799;BME280;43626;53.866;30.298;2023-12-04T06:22:02;1024.3;;;-9.7;53.3
57799;BME280;43626;53.866;30.298;2023-12-04T06:26:58;1024.3;;;-9.7;54.2
57799;BME280;43626;53.866;30.298;2023-12-04T06:31:38;1024.4;;;-9.6;54.4
57799;BME280;43626;53.866;30.298;2023-12-04T06:37:00;1024.4;;;-9.5;54.8
57799;BME280;43626;53.866;30.298;2023-12-04T06:41:24;1024.4;;;-9.3;55.1
57799;BME280;43626;53.866;30.298;2023-12-04T06:46:36;1024.5;;;-9.2;54.9
57799;BME280;43626;53.866;30.298;2023-12-04T06:51:38;1024.3;;;-9;55.2
57799;BME280;43626;53.866;30.298;2023-12-04T06:56:24;1024.3;;;-8.8;55.2
57799;BME280;43626;53.866;30.298;2023-12-04T07:01:48;1024.3;;;-8.6;55.4
57799;BME280;43626;53.866;30.298;2023-12-04T07:06:48;1024.3;;;-8.4;55.5
57799;BME280;43626;53.866;30.298;2023-12-04T07:11:20;1024.3;;;-8.2;55.8
57799;BME280;43626;53.866;30.298;2023-12-04T07:16:20;1024.2;;;-8;55.8
57799;BME280;43626;53.866;30.298;2023-12-04T07:21:58;1024.3;;;-7.8;55.5
57799;BME280;43626;53.866;30.298;2023-12-04T07:27:02;1024.3;;;-7.7;56
57799;BME280;43626;53.866;30.298;2023-12-04T07:32:02;1024.3;;;-7.5;56.1
57799;BME280;43626;53.866;30.298;2023-12-04T07:36:20;1024.3;;;-7.3;56.3
57799;BME280;43626;53.866;30.298;2023-12-04T07:41:58;1024.3;;;-7.1;56.4
57799;BME280;43626;53.866;30.298;2023-12-04T07:46:20;1024.3;;;-6.9;56.5
57799;BME280;43626;53.866;30.298;2023-12-04T07:51:38;1024.3;;;-6.8;56.6
57799;BME280;43626;53.866;30.298;2023-12-04T07:56:48;1024.3;;;-6.7;56.9
57799;BME280;43626;53.866;30.298;2023-12-04T08:01:28;1024.3;;;-6.5;57
57799;BME280;43626;53.866;30.298;2023-12-04T08:06:28;1024.3;;;-6.4;57.3
57799;BME280;43626;53.866;30.298;2023-12-04T08:11:50;1024.2;;;-6.3;57.8
57799;BME280;43626;53.866;30.298;2023-12-04T08:17:00;1024.3;;;-6.1;58.4
57799;BME280;43626;53.866;30.298;2023-12-04T08:21:56;1024.3;;;-5.9;58.5
57799;BME280;43626;53.866;30.298;2023-12-04T08:26:54;1024.4;;;-5.7;58.3
57799;BME280;43626;53.866;30.298;2023-12-04T08:31:20;1024.4;;;-5.6;58.2
57799;BME280;43626;53.866;30.298;2023-12-04T08:36:20;1024.4;;;-5.5;57.6
57799;BME280;43626;53.866;30.298;2023-12-04T08:41:20;1024.4;;;-5.5;57.5
57799;BME280;43626;53.866;30.298;2023-12-04T08:46:26;1024.3;;;-5.4;57.6
57799;BME280;43626;53.866;30.298;2023-12-04T08:51:24;1024.3;;;-5.3;59
57799;BME280;43626;53.866;30.298;2023-12-04T08:56:20;1024.3;;;-5.1;58.3
57799;BME280;43626;53.866;30.298;2023-12-04T09:01:28;1024.2;;;-5;58.8
57799;BME280;43626;53.866;30.298;2023-12-04T09:07:00;1024.2;;;-5;59.1
57799;BME280;43626;53.866;30.298;2023-12-04T09:11:58;1024.2;;;-4.9;59.2
57799;BME280;43626;53.866;30.298;2023-12-04T09:16:38;1024.2;;;-4.8;59.4
57799;BME280;43626;53.866;30.298;2023-12-04T09:21:56;1024.2;;;-4.8;59.4
57799;BME280;43626;53.866;30.298;2023-12-04T09:26:22;1024.1;;;-4.7;59.6
57799;BME280;43626;53.866;30.298;2023-12-04T09:31:22;1024.1;;;-4.6;59.7
57799;BME280;43626;53.866;30.298;2023-12-04T09:37:00;1024.1;;;-4.4;59.8
57799;BME280;43626;53.866;30.298;2023-12-04T09:41:28;1024;;;-4.4;59.9
57799;BME280;43626;53.866;30.298;2023-12-04T09:47:00;1024.1;;;-4.3;60.2
57799;BME280;43626;53.866;30.298;2023-12-04T09:51:20;1024;;;-4.2;60.5
57799;BME280;43626;53.866;30.298;2023-12-04T09:57:00;1024;;;-4;60.8
57799;BME280;43626;53.866;30.298;2023-12-04T10:02:00;1024;;;-3.6;64.3
57799;BME280;43626;53.866;30.298;2023-12-04T10:06:56;1024;;;-3.3;61.1
57799;BME280;43626;53.866;30.298;2023-12-04T10:11:26;1023.9;;;-3.1;60.7
57799;BME280;43626;53.866;30.298;2023-12-04T10:16:36;1023.9;;;-3;60.7
57799;BME280;43626;53.866;30.298;2023-12-04T10:21:31;1023.9;;;-3;60.9
57799;BME280;43626;53.866;30.298;2023-12-04T10:26:20;1023.9;;;-3;61.1
57799;BME280;43626;53.866;30.298;2023-12-04T10:31:20;1024;;;-3;61.4
57799;BME280;43626;53.866;30.298;2023-12-04T10:36:38;1024;;;-3;61.8
57799;BME280;43626;53.866;30.298;2023-12-04T10:41:58;1024;;;-3;62.4
57799;BME280;43626;53.866;30.298;2023-12-04T10:47:00;1024;;;-2.9;62.5
57799;BME280;43626;53.866;30.298;2023-12-04T10:51:58;1023.9;;;-2.8;62.6
57799;BME280;43626;53.866;30.298;2023-12-04T10:56:31;1023.8;;;-2.6;62.6
57799;BME280;43626;53.866;30.298;2023-12-04T11:01:58;1023.8;;;-2.4;62.5
57799;BME280;43626;53.866;30.298;2023-12-04T11:06:32;1023.8;;;-2.3;62.1
57799;BME280;43626;53.866;30.298;2023-12-04T11:11:34;1023.7;;;-2.3;62.1
57799;BME280;43626;53.866;30.298;2023-12-04T11:16:51;1023.6;;;-2.2;62.1
57799;BME280;43626;53.866;30.298;2023-12-04T11:21:30;1023.7;;;-2.2;62.2
57799;BME280;43626;53.866;30.298;2023-12-04T11:26:20;1023.7;;;-2.2;62.3
57799;BME280;43626;53.866;30.298;2023-12-04T11:31:46;1023.7;;;-2.3;62.6
57799;BME280;43626;53.866;30.298;2023-12-04T11:37:00;1023.7;;;-2.3;63.1
57799;BME280;43626;53.866;30.298;2023-12-04T11:42:00;1023.7;;;-2.4;63.6
57799;BME280;43626;53.866;30.298;2023-12-04T11:46:58;1023.7;;;-2.4;64
57799;BME280;43626;53.866;30.298;2023-12-04T11:51:51;1023.7;;;-2.3;64.2
57799;BME280;43626;53.866;30.298;2023-12-04T11:56:22;1023.8;;;-2.2;64.3
57799;BME280;43626;53.866;30.298;2023-12-04T12:01:20;1023.7;;;-2.1;64.2
57799;BME280;43626;53.866;30.298;2023-12-04T12:06:24;1023.7;;;-1.9;63.9
57799;BME280;43626;53.866;30.298;2023-12-04T12:11:20;1023.7;;;-1.8;63.7
57799;BME280;43626;53.866;30.298;2023-12-04T12:16:42;1023.7;;;-1.8;63.6
57799;BME280;43626;53.866;30.298;2023-12-04T12:21:30;1023.7;;;-1.9;63.7
57799;BME280;43626;53.866;30.298;2023-12-04T12:26:48;1023.7;;;-1.9;63.8
57799;BME280;43626;53.866;30.298;2023-12-04T12:32:00;1023.7;;;-2;64.1
57799;BME280;43626;53.866;30.298;2023-12-04T12:36:46;1023.7;;;-2.1;64.6
57799;BME280;43626;53.866;30.298;2023-12-04T12:41:56;1023.7;;;-2.2;65.2
57799;BME280;43626;53.866;30.298;2023-12-04T12:46:22;1023.7;;;-2.1;65.3
57799;BME280;43626;53.866;30.298;2023-12-04T12:51:42;1023.7;;;-2.2;65.5
57799;BME280;43626;53.866;30.298;2023-12-04T12:56:32;1023.7;;;-2.2;65.9
57799;BME280;43626;53.866;30.298;2023-12-04T13:01:22;1023.6;;;-2.1;65.6
57799;BME280;43626;53.866;30.298;2023-12-04T13:07:00;1023.6;;;-2;65.4
57799;BME280;43626;53.866;30.298;2023-12-04T13:11:32;1023.6;;;-2;65.2
57799;BME280;43626;53.866;30.298;2023-12-04T13:17:02;1023.6;;;-2;65.3
57799;BME280;43626;53.866;30.298;2023-12-04T13:22:02;1023.7;;;-2;65.3
57799;BME280;43626;53.866;30.298;2023-12-04T13:26:38;1023.7;;;-2;65.3
57799;BME280;43626;53.866;30.298;2023-12-04T13:31:38;1023.8;;;-2.1;65.5
57799;BME280;43626;53.866;30.298;2023-12-04T13:37:02;1023.8;;;-2.1;65.7
57799;BME280;43626;53.866;30.298;2023-12-04T13:41:34;1023.9;;;-2.2;66.1
57799;BME280;43626;53.866;30.298;2023-12-04T13:46:20;1023.9;;;-2.2;66.3
57799;BME280;43626;53.866;30.298;2023-12-04T13:51:38;1023.9;;;-2.2;66.3
57799;BME280;43626;53.866;30.298;2023-12-04T13:56:42;1023.9;;;-2.2;66.3
57799;BME280;43626;53.866;30.298;2023-12-04T14:01:20;1023.9;;;-2.2;66.2
57799;BME280;43626;53.866;30.298;2023-12-04T14:06:50;1023.9;;;-2.2;66.1
57799;BME280;43626;53.866;30.298;2023-12-04T14:12:02;1023.9;;;-2.2;66.2
57799;BME280;43626;53.866;30.298;2023-12-04T14:16:56;1023.9;;;-2.2;66.1
57799;BME280;43626;53.866;30.298;2023-12-04T14:21:40;1023.9;;;-2.2;66.1
57799;BME280;43626;53.866;30.298;2023-12-04T14:26:50;1023.9;;;-2.2;66.3
57799;BME280;43626;53.866;30.298;2023-12-04T14:31:30;1023.9;;;-2.3;66.4
57799;BME280;43626;53.866;30.298;2023-12-04T14:36:22;1023.9;;;-2.3;66.6
57799;BME280;43626;53.866;30.298;2023-12-04T14:41:40;1023.9;;;-2.3;66.6
57799;BME280;43626;53.866;30.298;2023-12-04T14:46:22;1024;;;-2.3;66.7
57799;BME280;43626;53.866;30.298;2023-12-04T14:51:22;1023.9;;;-2.2;66.7
57799;BME280;43626;53.866;30.298;2023-12-04T14:56:44;1023.9;;;-2.2;66.6
57799;BME280;43626;53.866;30.298;2023-12-04T15:02:04;1024;;;-2.2;66.5
57799;BME280;43626;53.866;30.298;2023-12-04T15:07:02;1024;;;-2.2;66.5
57799;BME280;43626;53.866;30.298;2023-12-04T15:11:40;1024;;;-2.1;66.5
57799;BME280;43626;53.866;30.298;2023-12-04T15:17:04;1024;;;-2.1;66.4
57799;BME280;43626;53.866;30.298;2023-12-04T15:21:20;1024;;;-2.1;66.4
57799;BME280;43626;53.866;30.298;2023-12-04T15:27:00;1024;;;-2.2;66.6
57799;BME280;43626;53.866;30.298;2023-12-04T15:31:46;1024;;;-2.2;66.6
57799;BME280;43626;53.866;30.298;2023-12-04T15:36:40;1024.1;;;-2.1;66.5
57799;BME280;43626;53.866;30.298;2023-12-04T15:41:28;1024.1;;;-2.1;66.5
57799;BME280;43626;53.866;30.298;2023-12-04T15:46:50;1024.1;;;-2.1;66.5
57799;BME280;43626;53.866;30.298;2023-12-04T15:52:04;1024.1;;;-2.1;66.5
57799;BME280;43626;53.866;30.298;2023-12-04T15:57:00;1024.1;;;-2.1;66.5
57799;BME280;43626;53.866;30.298;2023-12-04T16:01:22;1024.1;;;-2.1;66.4
57799;BME280;43626;53.866;30.298;2023-12-04T16:06:40;1024.1;;;-2.1;66.5
57799;BME280;43626;53.866;30.298;2023-12-04T16:11:44;1024.1;;;-2.1;66.5
57799;BME280;43626;53.866;30.298;2023-12-04T16:16:48;1024.1;;;-2.1;66.7
57799;BME280;43626;53.866;30.298;2023-12-04T16:21:38;1024.1;;;-2.2;66.8
57799;BME280;43626;53.866;30.298;2023-12-04T16:26:42;1024.1;;;-2.2;66.9
57799;BME280;43626;53.866;30.298;2023-12-04T16:31:50;1024.1;;;-2.2;66.9
57799;BME280;43626;53.866;30.298;2023-12-04T16:37:04;1024.1;;;-2.2;66.9
57799;BME280;43626;53.866;30.298;2023-12-04T16:42:00;1024.1;;;-2.2;66.9
57799;BME280;43626;53.866;30.298;2023-12-04T16:46:40;1024.2;;;-2.1;66.9
57799;BME280;43626;53.866;30.298;2023-12-04T16:52:02;1024.2;;;-2.1;66.8
57799;BME280;43626;53.866;30.298;2023-12-04T16:56:40;1024.2;;;-2.1;66.9
57799;BME280;43626;53.866;30.298;2023-12-04T17:01:58;1024.2;;;-2.1;66.8
57799;BME280;43626;53.866;30.298;2023-12-04T17:07:02;1024.2;;;-2.2;67
57799;BME280;43626;53.866;30.298;2023-12-04T17:11:20;1024.2;;;-2.2;67.1
57799;BME280;43626;53.866;30.298;2023-12-04T17:16:20;1024.2;;;-2.2;67.2
57799;BME280;43626;53.866;30.298;2023-12-04T17:21:22;1024.2;;;-2.2;67.2
57799;BME280;43626;53.866;30.298;2023-12-04T17:26:46;1024.3;;;-2.2;67.2
57799;BME280;43626;53.866;30.298;2023-12-04T17:31:20;1024.3;;;-2.1;67.3
57799;BME280;43626;53.866;30.298;2023-12-04T17:36:20;1024.4;;;-2.1;67.1
57799;BME280;43626;53.866;30.298;2023-12-04T17:42:04;1024.4;;;-2.1;67.2
57799;BME280;43626;53.866;30.298;2023-12-04T17:47:00;1024.5;;;-2;67
57799;BME280;43626;53.866;30.298;2023-12-04T17:51:20;1024.5;;;-1.9;66.9
57799;BME280;43626;53.866;30.298;2023-12-04T17:56:48;1024.5;;;-1.9;66.9
57799;BME280;43626;53.866;30.298;2023-12-04T18:01:20;1024.5;;;-1.9;66.7
57799;BME280;43626;53.866;30.298;2023-12-04T18:06:42;1024.6;;;-1.9;66.5
57799;BME280;43626;53.866;30.298;2023-12-04T18:11:50;1024.6;;;-1.9;66.3
57799;BME280;43626;53.866;30.298;2023-12-04T18:17:02;1024.7;;;-1.9;66.3
57799;BME280;43626;53.866;30.298;2023-12-04T18:21:58;1024.8;;;-1.9;66.2
57799;BME280;43626;53.866;30.298;2023-12-04T18:26:20;1024.8;;;-1.9;66.2
57799;BME280;43626;53.866;30.298;2023-12-04T18:32:04;1024.8;;;-1.9;66.3
57799;BME280;43626;53.866;30.298;2023-12-04T18:37:05;1024.8;;;-1.9;66.2
57799;BME280;43626;53.866;30.298;2023-12-04T18:42:04;1024.8;;;-1.9;66.2
57799;BME280;43626;53.866;30.298;2023-12-04T18:46:28;1024.8;;;-1.8;66.1
57799;BME280;43626;53.866;30.298;2023-12-04T18:51:20;1024.8;;;-1.8;66
57799;BME280;43626;53.866;30.298;2023-12-04T18:57:02;1024.9;;;-1.9;66.1
57799;BME280;43626;53.866;30.298;2023-12-04T19:01:20;1024.9;;;-1.8;66
57799;BME280;43626;53.866;30.298;2023-12-04T19:06:38;1024.9;;;-1.8;65.9
57799;BME280;43626;53.866;30.298;2023-12-04T19:11:20;1024.9;;;-1.8;65.8
57799;BME280;43626;53.866;30.298;2023-12-04T19:16:20;1024.9;;;-1.8;65.8
57799;BME280;43626;53.866;30.298;2023-12-04T19:22:02;1024.9;;;-1.7;65.8
57799;BME280;43626;53.866;30.298;2023-12-04T19:27:00;1024.9;;;-1.7;65.7
57799;BME280;43626;53.866;30.298;2023-12-04T19:31:30;1024.9;;;-1.7;65.7
57799;BME280;43626;53.866;30.298;2023-12-04T19:37:00;1025;;;-1.7;65.7
57799;BME280;43626;53.866;30.298;2023-12-04T19:41:28;1025;;;-1.7;65.7
57799;BME280;43626;53.866;30.298;2023-12-04T19:46:42;1025;;;-1.7;65.9
57799;BME280;43626;53.866;30.298;2023-12-04T19:51:22;1025;;;-1.6;65.9
57799;BME280;43626;53.866;30.298;2023-12-04T19:57:00;1025.1;;;-1.7;65.7
57799;BME280;43626;53.866;30.298;2023-12-04T20:01:57;1025.1;;;-1.7;65.6
57799;BME280;43626;53.866;30.298;2023-12-04T20:06:30;1025.1;;;-1.6;65.4
57799;BME280;43626;53.866;30.298;2023-12-04T20:12:02;1025.1;;;-1.6;65.2
57799;BME280;43626;53.866;30.298;2023-12-04T20:16:46;1025.2;;;-1.6;65.2
57799;BME280;43626;53.866;30.298;2023-12-04T20:21:58;1025.2;;;-1.6;65.2
57799;BME280;43626;53.866;30.298;2023-12-04T20:26:32;1025.3;;;-1.5;65.2
57799;BME280;43626;53.866;30.298;2023-12-04T20:31:20;1025.3;;;-1.5;65.3
57799;BME280;43626;53.866;30.298;2023-12-04T20:37:02;1025.3;;;-1.5;65.3
57799;BME280;43626;53.866;30.298;2023-12-04T20:41:28;1025.3;;;-1.5;65.3
57799;BME280;43626;53.866;30.298;2023-12-04T20:46:20;1025.3;;;-1.5;65.4
57799;BME280;43626;53.866;30.298;2023-12-04T20:51:24;1025.3;;;-1.5;65.4
57799;BME280;43626;53.866;30.298;2023-12-04T20:56:58;1025.3;;;-1.5;65.4
57799;BME280;43626;53.866;30.298;2023-12-04T21:02:02;1025.3;;;-1.6;65.4
57799;BME280;43626;53.866;30.298;2023-12-04T21:07:02;1025.2;;;-1.6;65.6
57799;BME280;43626;53.866;30.298;2023-12-04T21:11:46;1025.3;;;-1.6;65.5
57799;BME280;43626;53.866;30.298;2023-12-04T21:16:58;1025.3;;;-1.6;65.6
57799;BME280;43626;53.866;30.298;2023-12-04T21:21:30;1025.3;;;-1.6;65.8
57799;BME280;43626;53.866;30.298;2023-12-04T21:26:40;1025.4;;;-1.6;65.8
57799;BME280;43626;53.866;30.298;2023-12-04T21:31:30;1025.4;;;-1.7;66
57799;BME280;43626;53.866;30.298;2023-12-04T21:36:30;1025.4;;;-1.7;66.1
57799;BME280;43626;53.866;30.298;2023-12-04T21:41:22;1025.5;;;-1.7;66.1
57799;BME280;43626;53.866;30.298;2023-12-04T21:46:30;1025.4;;;-1.7;66.1
57799;BME280;43626;53.866;30.298;2023-12-04T21:52:02;1025.4;;;-1.7;66.3
57799;BME280;43626;53.866;30.298;2023-12-04T21:57:02;1025.4;;;-1.8;66.5
57799;BME280;43626;53.866;30.298;2023-12-04T22:01:58;1025.4;;;-1.8;66.5
57799;BME280;43626;53.866;30.298;2023-12-04T22:06:20;1025.4;;;-1.7;66.4
57799;BME280;43626;53.866;30.298;2023-12-04T22:11:24;1025.5;;;-1.7;66.5
57799;BME280;43626;53.866;30.298;2023-12-04T22:16:22;1025.5;;;-1.7;66.5
57799;BME280;43626;53.866;30.298;2023-12-04T22:22:03;1025.5;;;-1.6;66.4
57799;BME280;43626;53.866;30.298;2023-12-04T22:26:50;1025.5;;;-1.6;66.4
57799;BME280;43626;53.866;30.298;2023-12-04T22:31:20;1025.5;;;-1.6;66.3
57799;BME280;43626;53.866;30.298;2023-12-04T22:36:58;1025.5;;;-1.6;66.5
57799;BME280;43626;53.866;30.298;2023-12-04T22:42:02;1025.5;;;-1.6;66.6
57799;BME280;43626;53.866;30.298;2023-12-04T22:47:02;1025.5;;;-1.6;66.8
57799;BME280;43626;53.866;30.298;2023-12-04T22:51:32;1025.5;;;-1.6;66.9
57799;BME280;43626;53.866;30.298;2023-12-04T22:56:58;1025.5;;;-1.6;67
57799;BME280;43626;53.866;30.298;2023-12-04T23:01:23;1025.4;;;-1.6;67.1
57799;BME280;43626;53.866;30.298;2023-12-04T23:07:02;1025.4;;;-1.5;66.9
57799;BME280;43626;53.866;30.298;2023-12-04T23:11:50;1025.4;;;-1.5;66.8
57799;BME280;43626;53.866;30.298;2023-12-04T23:16:50;1025.4;;;-1.5;66.9
57799;BME280;43626;53.866;30.298;2023-12-04T23:21:48;1025.4;;;-1.5;66.9
57799;BME280;43626;53.866;30.298;2023-12-04T23:26:30;1025.4;;;-1.5;66.9
57799;BME280;43626;53.866;30.298;2023-12-04T23:32:02;1025.4;;;-1.5;66.9
57799;BME280;43626;53.866;30.298;2023-12-04T23:37:02;1025.4;;;-1.5;66.9
57799;BME280;43626;53.866;30.298;2023-12-04T23:41:22;1025.4;;;-1.5;66.9
57799;BME280;43626;53.866;30.298;2023-12-04T23:46:20;1025.4;;;-1.5;66.9
57799;BME280;43626;53.866;30.298;2023-12-04T23:51:28;1025.5;;;-1.5;66.9
57799;BME280;43626;53.866;30.298;2023-12-04T23:56:28;1025.5;;;-1.5;66.9
